sensor_id;sensor_type;location;lat;lon;timestamp;pressure;altitude;pressure_sealevel;temperature;humidity
7660;BME280;3872;47.902;8.162;2023-02-19T00:01:35;92515.00;;;9.97;100.00
7660;BME280;3872;47.902;8.162;2023-02-19T00:04:04;92514.34;;;9.32;100.00
7660;BME280;3872;47.902;8.162;2023-02-19T00:06:33;92510.19;;;9.70;100.00
7660;BME280;3872;47.902;8.162;2023-02-19T00:09:00;92505.13;;;9.83;100.00
7660;BME280;3872;47.902;8.162;2023-02-19T00:11:29;92513.91;;;10.03;100.00
7660;BME280;3872;47.902;8.162;2023-02-19T00:13:57;92506.31;;;10.01;100.00
7660;BME280;3872;47.902;8.162;2023-02-19T00:16:26;92505.63;;;9.41;100.00
7660;BME280;3872;47.902;8.162;2023-02-19T00:18:55;92508.69;;;9.98;100.00
7660;BME280;3872;47.902;8.162;2023-02-19T00:21:22;92511.72;;;10.20;100.00
7660;BME280;3872;47.902;8.162;2023-02-19T00:23:51;92511.31;;;9.98;100.00
7660;BME280;3872;47.902;8.162;2023-02-19T00:26:19;92506.53;;;10.05;100.00
7660;BME280;3872;47.902;8.162;2023-02-19T00:28:48;92512.47;;;9.42;100.00
7660;BME280;3872;47.902;8.162;2023-02-19T00:31:17;92515.75;;;9.09;100.00
7660;BME280;3872;47.902;8.162;2023-02-19T00:33:44;92509.38;;;9.30;100.00
7660;BME280;3872;47.902;8.162;2023-02-19T00:36:11;92507.38;;;9.07;100.00
7660;BME280;3872;47.902;8.162;2023-02-19T00:38:39;92500.28;;;9.08;100.00
7660;BME280;3872;47.902;8.162;2023-02-19T00:41:08;92495.34;;;9.45;100.00
7660;BME280;3872;47.902;8.162;2023-02-19T00:43:45;92490.13;;;9.40;100.00
7660;BME280;3872;47.902;8.162;2023-02-19T00:46:12;92492.00;;;9.34;100.00
7660;BME280;3872;47.902;8.162;2023-02-19T00:48:39;92493.84;;;9.34;100.00
7660;BME280;3872;47.902;8.162;2023-02-19T00:51:05;92500.19;;;9.28;100.00
7660;BME280;3872;47.902;8.162;2023-02-19T00:53:32;92501.72;;;9.34;100.00
7660;BME280;3872;47.902;8.162;2023-02-19T00:55:59;92498.94;;;9.59;100.00
7660;BME280;3872;47.902;8.162;2023-02-19T00:58:26;92516.25;;;9.16;100.00
7660;BME280;3872;47.902;8.162;2023-02-19T01:00:53;92506.97;;;9.34;100.00
7660;BME280;3872;47.902;8.162;2023-02-19T01:03:19;92501.75;;;9.29;100.00
7660;BME280;3872;47.902;8.162;2023-02-19T01:05:47;92500.59;;;9.50;100.00
7660;BME280;3872;47.902;8.162;2023-02-19T01:08:14;92496.44;;;8.80;100.00
7660;BME280;3872;47.902;8.162;2023-02-19T01:10:41;92488.84;;;9.32;100.00
7660;BME280;3872;47.902;8.162;2023-02-19T01:13:08;92487.72;;;9.49;100.00
7660;BME280;3872;47.902;8.162;2023-02-19T01:15:36;92488.31;;;9.35;100.00
7660;BME280;3872;47.902;8.162;2023-02-19T01:18:02;92479.28;;;9.02;100.00
7660;BME280;3872;47.902;8.162;2023-02-19T01:20:29;92469.25;;;9.15;100.00
7660;BME280;3872;47.902;8.162;2023-02-19T01:22:56;92473.06;;;8.83;100.00
7660;BME280;3872;47.902;8.162;2023-02-19T01:25:22;92463.91;;;8.71;100.00
7660;BME280;3872;47.902;8.162;2023-02-19T01:27:49;92462.94;;;8.41;100.00
7660;BME280;3872;47.902;8.162;2023-02-19T01:30:16;92464.25;;;8.34;100.00
7660;BME280;3872;47.902;8.162;2023-02-19T01:32:44;92457.34;;;8.78;100.00
7660;BME280;3872;47.902;8.162;2023-02-19T01:35:11;92456.88;;;8.46;100.00
7660;BME280;3872;47.902;8.162;2023-02-19T01:37:37;92450.31;;;9.23;100.00
7660;BME280;3872;47.902;8.162;2023-02-19T01:40:05;92458.72;;;8.50;100.00
7660;BME280;3872;47.902;8.162;2023-02-19T01:42:32;92465.09;;;9.09;100.00
7660;BME280;3872;47.902;8.162;2023-02-19T01:45:24;92460.47;;;8.75;100.00
7660;BME280;3872;47.902;8.162;2023-02-19T01:48:01;92450.03;;;9.29;100.00
7660;BME280;3872;47.902;8.162;2023-02-19T01:50:34;92445.22;;;8.92;100.00
7660;BME280;3872;47.902;8.162;2023-02-19T01:53:02;92446.97;;;9.07;100.00
7660;BME280;3872;47.902;8.162;2023-02-19T01:55:32;92429.69;;;9.01;100.00
7660;BME280;3872;47.902;8.162;2023-02-19T01:58:00;92425.31;;;8.76;100.00
7660;BME280;3872;47.902;8.162;2023-02-19T02:00:28;92425.84;;;8.78;100.00
7660;BME280;3872;47.902;8.162;2023-02-19T02:02:57;92410.50;;;8.36;100.00
7660;BME280;3872;47.902;8.162;2023-02-19T02:05:34;92398.50;;;8.00;100.00
7660;BME280;3872;47.902;8.162;2023-02-19T02:08:03;92405.72;;;8.53;100.00
7660;BME280;3872;47.902;8.162;2023-02-19T02:10:48;92412.09;;;8.32;100.00
7660;BME280;3872;47.902;8.162;2023-02-19T02:13:15;92420.00;;;7.81;100.00
7660;BME280;3872;47.902;8.162;2023-02-19T02:15:48;92414.31;;;8.74;100.00
7660;BME280;3872;47.902;8.162;2023-02-19T02:18:25;92419.09;;;8.57;100.00
7660;BME280;3872;47.902;8.162;2023-02-19T02:21:03;92405.00;;;8.17;100.00
7660;BME280;3872;47.902;8.162;2023-02-19T02:23:39;92408.47;;;8.03;100.00
7660;BME280;3872;47.902;8.162;2023-02-19T02:26:24;92404.53;;;7.75;100.00
7660;BME280;3872;47.902;8.162;2023-02-19T02:29:30;92410.81;;;8.09;100.00
7660;BME280;3872;47.902;8.162;2023-02-19T02:32:07;92413.13;;;8.26;100.00
7660;BME280;3872;47.902;8.162;2023-02-19T02:34:40;92411.03;;;8.33;100.00
7660;BME280;3872;47.902;8.162;2023-02-19T02:37:11;92417.88;;;8.14;100.00
7660;BME280;3872;47.902;8.162;2023-02-19T02:39:40;92417.09;;;8.03;100.00
7660;BME280;3872;47.902;8.162;2023-02-19T02:42:07;92423.38;;;8.07;100.00
7660;BME280;3872;47.902;8.162;2023-02-19T02:45:22;92406.88;;;7.97;100.00
7660;BME280;3872;47.902;8.162;2023-02-19T02:48:33;92405.59;;;7.94;100.00
7660;BME280;3872;47.902;8.162;2023-02-19T02:51:09;92406.66;;;7.73;100.00
7660;BME280;3872;47.902;8.162;2023-02-19T02:53:49;92403.44;;;8.37;100.00
7660;BME280;3872;47.902;8.162;2023-02-19T02:56:36;92419.44;;;8.05;100.00
7660;BME280;3872;47.902;8.162;2023-02-19T02:59:06;92405.53;;;8.19;100.00
7660;BME280;3872;47.902;8.162;2023-02-19T03:01:36;92420.72;;;8.33;100.00
7660;BME280;3872;47.902;8.162;2023-02-19T03:04:28;92415.22;;;8.34;100.00
7660;BME280;3872;47.902;8.162;2023-02-19T03:06:59;92438.34;;;7.81;100.00
7660;BME280;3872;47.902;8.162;2023-02-19T03:09:31;92429.72;;;7.81;100.00
7660;BME280;3872;47.902;8.162;2023-02-19T03:12:09;92421.25;;;8.35;100.00
7660;BME280;3872;47.902;8.162;2023-02-19T03:14:59;92428.91;;;7.85;100.00
7660;BME280;3872;47.902;8.162;2023-02-19T03:17:48;92421.03;;;7.75;100.00
7660;BME280;3872;47.902;8.162;2023-02-19T03:20:38;92431.75;;;8.04;100.00
7660;BME280;3872;47.902;8.162;2023-02-19T03:23:08;92431.25;;;7.92;100.00
7660;BME280;3872;47.902;8.162;2023-02-19T03:25:36;92429.16;;;7.54;100.00
7660;BME280;3872;47.902;8.162;2023-02-19T03:28:33;92407.44;;;7.43;100.00
7660;BME280;3872;47.902;8.162;2023-02-19T03:31:23;92410.81;;;7.28;100.00
7660;BME280;3872;47.902;8.162;2023-02-19T03:33:55;92402.44;;;7.62;100.00
7660;BME280;3872;47.902;8.162;2023-02-19T03:36:27;92380.44;;;7.63;100.00
7660;BME280;3872;47.902;8.162;2023-02-19T03:38:58;92363.97;;;7.52;100.00
7660;BME280;3872;47.902;8.162;2023-02-19T03:41:30;92353.50;;;7.17;100.00
7660;BME280;3872;47.902;8.162;2023-02-19T03:44:06;92336.97;;;7.06;100.00
7660;BME280;3872;47.902;8.162;2023-02-19T03:46:41;92349.81;;;7.28;100.00
7660;BME280;3872;47.902;8.162;2023-02-19T03:49:13;92363.69;;;7.23;100.00
7660;BME280;3872;47.902;8.162;2023-02-19T03:51:53;92365.00;;;7.21;100.00
7660;BME280;3872;47.902;8.162;2023-02-19T03:54:30;92375.50;;;7.51;100.00
7660;BME280;3872;47.902;8.162;2023-02-19T03:57:02;92352.44;;;7.63;100.00
7660;BME280;3872;47.902;8.162;2023-02-19T03:59:33;92355.56;;;7.60;100.00
7660;BME280;3872;47.902;8.162;2023-02-19T04:02:06;92369.22;;;7.37;100.00
7660;BME280;3872;47.902;8.162;2023-02-19T04:04:37;92363.94;;;7.77;100.00
7660;BME280;3872;47.902;8.162;2023-02-19T04:07:06;92384.38;;;7.70;100.00
7660;BME280;3872;47.902;8.162;2023-02-19T04:09:36;92374.97;;;7.59;100.00
7660;BME280;3872;47.902;8.162;2023-02-19T04:12:10;92367.06;;;7.74;100.00
7660;BME280;3872;47.902;8.162;2023-02-19T04:14:40;92368.41;;;7.72;100.00
7660;BME280;3872;47.902;8.162;2023-02-19T04:17:12;92363.41;;;7.70;100.00
7660;BME280;3872;47.902;8.162;2023-02-19T04:19:44;92372.34;;;7.59;100.00
7660;BME280;3872;47.902;8.162;2023-02-19T04:22:16;92369.72;;;7.64;100.00
7660;BME280;3872;47.902;8.162;2023-02-19T04:24:46;92375.72;;;7.70;100.00
7660;BME280;3872;47.902;8.162;2023-02-19T04:27:14;92380.19;;;7.39;100.00
7660;BME280;3872;47.902;8.162;2023-02-19T04:29:40;92373.38;;;7.73;100.00
7660;BME280;3872;47.902;8.162;2023-02-19T04:32:09;92374.16;;;7.69;100.00
7660;BME280;3872;47.902;8.162;2023-02-19T04:34:35;92363.66;;;7.94;100.00
7660;BME280;3872;47.902;8.162;2023-02-19T04:37:02;92369.19;;;7.72;100.00
7660;BME280;3872;47.902;8.162;2023-02-19T04:39:30;92374.97;;;7.59;100.00
7660;BME280;3872;47.902;8.162;2023-02-19T04:41:57;92375.22;;;7.32;100.00
7660;BME280;3872;47.902;8.162;2023-02-19T04:44:23;92369.97;;;7.27;100.00
7660;BME280;3872;47.902;8.162;2023-02-19T04:46:50;92376.50;;;6.99;100.00
7660;BME280;3872;47.902;8.162;2023-02-19T04:49:16;92364.22;;;7.10;100.00
7660;BME280;3872;47.902;8.162;2023-02-19T04:51:42;92369.47;;;7.35;100.00
7660;BME280;3872;47.902;8.162;2023-02-19T04:54:09;92355.84;;;7.43;100.00
7660;BME280;3872;47.902;8.162;2023-02-19T04:56:38;92362.41;;;7.31;100.00
7660;BME280;3872;47.902;8.162;2023-02-19T04:59:04;92359.00;;;7.10;100.00
7660;BME280;3872;47.902;8.162;2023-02-19T05:01:31;92355.56;;;6.99;100.00
7660;BME280;3872;47.902;8.162;2023-02-19T05:03:57;92362.13;;;7.27;100.00
7660;BME280;3872;47.902;8.162;2023-02-19T05:06:24;92361.56;;;7.76;100.00
7660;BME280;3872;47.902;8.162;2023-02-19T05:08:51;92366.31;;;7.28;100.00
7660;BME280;3872;47.902;8.162;2023-02-19T05:11:18;92360.28;;;7.28;100.00
7660;BME280;3872;47.902;8.162;2023-02-19T05:13:46;92357.41;;;7.55;100.00
7660;BME280;3872;47.902;8.162;2023-02-19T05:16:14;92366.28;;;7.18;100.00
7660;BME280;3872;47.902;8.162;2023-02-19T05:18:42;92368.13;;;7.33;100.00
7660;BME280;3872;47.902;8.162;2023-02-19T05:21:10;92359.50;;;7.17;100.00
7660;BME280;3872;47.902;8.162;2023-02-19T05:23:37;92368.94;;;7.64;100.00
7660;BME280;3872;47.902;8.162;2023-02-19T05:26:05;92376.28;;;7.52;100.00
7660;BME280;3872;47.902;8.162;2023-02-19T05:28:31;92377.03;;;7.62;100.00
7660;BME280;3872;47.902;8.162;2023-02-19T05:31:03;92373.38;;;7.63;100.00
7660;BME280;3872;47.902;8.162;2023-02-19T05:33:30;92383.09;;;7.53;100.00
7660;BME280;3872;47.902;8.162;2023-02-19T05:35:56;92387.78;;;7.66;100.00
7660;BME280;3872;47.902;8.162;2023-02-19T05:38:23;92395.66;;;7.81;100.00
7660;BME280;3872;47.902;8.162;2023-02-19T05:40:50;92404.03;;;7.47;100.00
7660;BME280;3872;47.902;8.162;2023-02-19T05:43:16;92404.03;;;7.73;100.00
7660;BME280;3872;47.902;8.162;2023-02-19T05:45:43;92404.56;;;7.80;100.00
7660;BME280;3872;47.902;8.162;2023-02-19T05:48:11;92404.28;;;7.71;100.00
7660;BME280;3872;47.902;8.162;2023-02-19T05:50:38;92407.16;;;7.55;100.00
7660;BME280;3872;47.902;8.162;2023-02-19T05:53:11;92391.97;;;7.87;100.00
7660;BME280;3872;47.902;8.162;2023-02-19T05:55:37;92399.31;;;7.55;100.00
7660;BME280;3872;47.902;8.162;2023-02-19T05:58:04;92409.53;;;7.71;100.00
7660;BME280;3872;47.902;8.162;2023-02-19T06:00:31;92409.25;;;7.63;100.00
7660;BME280;3872;47.902;8.162;2023-02-19T06:02:58;92391.44;;;7.90;100.00
7660;BME280;3872;47.902;8.162;2023-02-19T06:05:26;92402.69;;;7.75;100.00
7660;BME280;3872;47.902;8.162;2023-02-19T06:07:52;92403.50;;;7.45;100.00
7660;BME280;3872;47.902;8.162;2023-02-19T06:10:19;92401.66;;;7.56;100.00
7660;BME280;3872;47.902;8.162;2023-02-19T06:12:45;92405.84;;;7.67;100.00
7660;BME280;3872;47.902;8.162;2023-02-19T06:15:12;92401.13;;;7.74;100.00
7660;BME280;3872;47.902;8.162;2023-02-19T06:17:38;92409.25;;;7.83;100.00
7660;BME280;3872;47.902;8.162;2023-02-19T06:20:06;92400.88;;;7.86;100.00
7660;BME280;3872;47.902;8.162;2023-02-19T06:22:34;92411.59;;;7.39;100.00
7660;BME280;3872;47.902;8.162;2023-02-19T06:25:00;92409.53;;;7.71;100.00
7660;BME280;3872;47.902;8.162;2023-02-19T06:27:27;92402.97;;;7.33;100.00
7660;BME280;3872;47.902;8.162;2023-02-19T06:29:53;92428.91;;;7.60;100.00
7660;BME280;3872;47.902;8.162;2023-02-19T06:32:20;92428.59;;;7.16;100.00
7660;BME280;3872;47.902;8.162;2023-02-19T06:34:46;92439.09;;;7.41;100.00
7660;BME280;3872;47.902;8.162;2023-02-19T06:37:13;92435.19;;;7.49;100.00
7660;BME280;3872;47.902;8.162;2023-02-19T06:39:40;92445.38;;;7.35;100.00
7660;BME280;3872;47.902;8.162;2023-02-19T06:42:08;92443.03;;;7.49;100.00
7660;BME280;3872;47.902;8.162;2023-02-19T06:44:35;92454.25;;;7.14;100.00
7660;BME280;3872;47.902;8.162;2023-02-19T06:47:01;92451.88;;;7.18;100.00
7660;BME280;3872;47.902;8.162;2023-02-19T06:49:28;92475.75;;;7.31;100.00
7660;BME280;3872;47.902;8.162;2023-02-19T06:51:54;92473.81;;;6.96;100.00
7660;BME280;3872;47.902;8.162;2023-02-19T06:54:21;92485.94;;;7.33;100.00
7660;BME280;3872;47.902;8.162;2023-02-19T06:56:51;92489.38;;;7.38;100.00
7660;BME280;3872;47.902;8.162;2023-02-19T06:59:18;92482.00;;;7.15;100.00
7660;BME280;3872;47.902;8.162;2023-02-19T07:01:45;92488.03;;;7.21;100.00
7660;BME280;3872;47.902;8.162;2023-02-19T07:04:11;92503.25;;;7.39;100.00
7660;BME280;3872;47.902;8.162;2023-02-19T07:06:38;92508.41;;;7.14;100.00
7660;BME280;3872;47.902;8.162;2023-02-19T07:09:05;92506.94;;;7.38;100.00
7660;BME280;3872;47.902;8.162;2023-02-19T07:11:33;92523.25;;;6.98;100.00
7660;BME280;3872;47.902;8.162;2023-02-19T07:14:03;92524.91;;;7.09;100.00
7660;BME280;3872;47.902;8.162;2023-02-19T07:16:31;92525.28;;;6.81;100.00
7660;BME280;3872;47.902;8.162;2023-02-19T07:18:59;92525.63;;;6.94;100.00
7660;BME280;3872;47.902;8.162;2023-02-19T07:21:26;92530.78;;;7.52;100.00
7660;BME280;3872;47.902;8.162;2023-02-19T07:23:54;92536.72;;;7.27;100.00
7660;BME280;3872;47.902;8.162;2023-02-19T07:26:21;92537.06;;;7.61;100.00
7660;BME280;3872;47.902;8.162;2023-02-19T07:28:49;92545.25;;;7.90;100.00
7660;BME280;3872;47.902;8.162;2023-02-19T07:31:19;92545.47;;;7.68;100.00
7660;BME280;3872;47.902;8.162;2023-02-19T07:33:46;92544.03;;;7.25;100.00
7660;BME280;3872;47.902;8.162;2023-02-19T07:36:14;92557.31;;;7.91;100.00
7660;BME280;3872;47.902;8.162;2023-02-19T07:38:41;92565.59;;;7.47;100.00
7660;BME280;3872;47.902;8.162;2023-02-19T07:41:14;92561.75;;;7.85;100.00
7660;BME280;3872;47.902;8.162;2023-02-19T07:43:40;92568.31;;;7.93;100.00
7660;BME280;3872;47.902;8.162;2023-02-19T07:46:09;92576.72;;;8.05;100.00
7660;BME280;3872;47.902;8.162;2023-02-19T07:48:38;92583.53;;;8.06;100.00
7660;BME280;3872;47.902;8.162;2023-02-19T07:51:06;92596.16;;;8.24;100.00
7660;BME280;3872;47.902;8.162;2023-02-19T07:53:33;92591.19;;;8.33;100.00
7660;BME280;3872;47.902;8.162;2023-02-19T07:56:01;92596.56;;;7.75;100.00
7660;BME280;3872;47.902;8.162;2023-02-19T07:58:28;92596.09;;;7.99;100.00
7660;BME280;3872;47.902;8.162;2023-02-19T08:00:55;92597.09;;;7.72;100.00
7660;BME280;3872;47.902;8.162;2023-02-19T08:03:22;92593.41;;;7.58;100.00
7660;BME280;3872;47.902;8.162;2023-02-19T08:05:49;92600.16;;;7.54;100.00
7660;BME280;3872;47.902;8.162;2023-02-19T08:08:18;92604.69;;;7.69;100.00
7660;BME280;3872;47.902;8.162;2023-02-19T08:10:44;92597.34;;;7.66;100.00
7660;BME280;3872;47.902;8.162;2023-02-19T08:13:29;92606.28;;;7.80;100.00
7660;BME280;3872;47.902;8.162;2023-02-19T08:16:09;92600.88;;;8.47;100.00
7660;BME280;3872;47.902;8.162;2023-02-19T08:18:37;92609.13;;;7.63;100.00
7660;BME280;3872;47.902;8.162;2023-02-19T08:21:05;92616.28;;;7.98;100.00
7660;BME280;3872;47.902;8.162;2023-02-19T08:23:32;92621.59;;;7.41;100.00
7660;BME280;3872;47.902;8.162;2023-02-19T08:25:59;92631.16;;;7.10;100.00
7660;BME280;3872;47.902;8.162;2023-02-19T08:28:26;92626.34;;;7.49;100.00
7660;BME280;3872;47.902;8.162;2023-02-19T08:30:57;92626.91;;;7.51;100.00
7660;BME280;3872;47.902;8.162;2023-02-19T08:33:24;92633.25;;;7.75;100.00
7660;BME280;3872;47.902;8.162;2023-02-19T08:35:51;92649.53;;;7.25;100.00
7660;BME280;3872;47.902;8.162;2023-02-19T08:38:19;92643.81;;;7.96;100.00
7660;BME280;3872;47.902;8.162;2023-02-19T08:40:45;92645.78;;;7.68;100.00
7660;BME280;3872;47.902;8.162;2023-02-19T08:43:14;92657.06;;;7.69;100.00
7660;BME280;3872;47.902;8.162;2023-02-19T08:45:42;92657.94;;;7.27;100.00
7660;BME280;3872;47.902;8.162;2023-02-19T08:48:09;92656.97;;;7.38;100.00
7660;BME280;3872;47.902;8.162;2023-02-19T08:50:39;92668.94;;;7.29;100.00
7660;BME280;3872;47.902;8.162;2023-02-19T08:53:13;92657.66;;;7.24;100.00
7660;BME280;3872;47.902;8.162;2023-02-19T08:55:41;92672.88;;;6.90;100.00
7660;BME280;3872;47.902;8.162;2023-02-19T08:58:09;92676.59;;;6.99;100.00
7660;BME280;3872;47.902;8.162;2023-02-19T09:00:36;92672.97;;;6.68;100.00
7660;BME280;3872;47.902;8.162;2023-02-19T09:03:02;92671.88;;;7.38;100.00
7660;BME280;3872;47.902;8.162;2023-02-19T09:05:29;92681.47;;;7.22;100.00
7660;BME280;3872;47.902;8.162;2023-02-19T09:07:55;92680.63;;;6.75;100.00
7660;BME280;3872;47.902;8.162;2023-02-19T09:10:22;92689.06;;;7.24;100.00
7660;BME280;3872;47.902;8.162;2023-02-19T09:12:50;92689.22;;;7.07;100.00
7660;BME280;3872;47.902;8.162;2023-02-19T09:15:16;92694.97;;;7.51;100.00
7660;BME280;3872;47.902;8.162;2023-02-19T09:17:43;92696.25;;;7.01;100.00
7660;BME280;3872;47.902;8.162;2023-02-19T09:20:10;92698.69;;;7.60;100.00
7660;BME280;3872;47.902;8.162;2023-02-19T09:22:37;92692.84;;;7.48;100.00
7660;BME280;3872;47.902;8.162;2023-02-19T09:25:04;92690.16;;;6.91;100.00
7660;BME280;3872;47.902;8.162;2023-02-19T09:27:30;92677.84;;;7.91;100.00
7660;BME280;3872;47.902;8.162;2023-02-19T09:29:59;92692.13;;;7.58;100.00
7660;BME280;3872;47.902;8.162;2023-02-19T09:32:25;92694.91;;;7.98;100.00
7660;BME280;3872;47.902;8.162;2023-02-19T09:34:55;92693.19;;;7.62;100.00
7660;BME280;3872;47.902;8.162;2023-02-19T09:37:24;92703.28;;;6.96;100.00
7660;BME280;3872;47.902;8.162;2023-02-19T09:39:51;92702.59;;;7.53;100.00
7660;BME280;3872;47.902;8.162;2023-02-19T09:42:19;92693.38;;;8.02;100.00
7660;BME280;3872;47.902;8.162;2023-02-19T09:44:48;92699.53;;;7.71;100.00
7660;BME280;3872;47.902;8.162;2023-02-19T09:47:18;92696.41;;;7.79;100.00
7660;BME280;3872;47.902;8.162;2023-02-19T09:49:47;92691.19;;;7.89;100.00
7660;BME280;3872;47.902;8.162;2023-02-19T09:52:23;92698.56;;;7.40;100.00
7660;BME280;3872;47.902;8.162;2023-02-19T09:54:51;92690.53;;;8.24;100.00
7660;BME280;3872;47.902;8.162;2023-02-19T09:57:22;92693.63;;;8.01;100.00
7660;BME280;3872;47.902;8.162;2023-02-19T09:59:51;92698.56;;;7.35;100.00
7660;BME280;3872;47.902;8.162;2023-02-19T10:02:21;92686.31;;;8.18;100.00
7660;BME280;3872;47.902;8.162;2023-02-19T10:04:49;92696.59;;;7.57;100.00
7660;BME280;3872;47.902;8.162;2023-02-19T10:07:18;92697.56;;;7.46;100.00
7660;BME280;3872;47.902;8.162;2023-02-19T10:09:50;92688.56;;;7.79;100.00
7660;BME280;3872;47.902;8.162;2023-02-19T10:12:22;92678.31;;;7.72;100.00
7660;BME280;3872;47.902;8.162;2023-02-19T10:14:52;92685.44;;;7.87;100.00
7660;BME280;3872;47.902;8.162;2023-02-19T10:17:24;92692.63;;;8.17;100.00
7660;BME280;3872;47.902;8.162;2023-02-19T10:19:52;92687.72;;;7.68;100.00
7660;BME280;3872;47.902;8.162;2023-02-19T10:22:19;92686.50;;;7.91;100.00
7660;BME280;3872;47.902;8.162;2023-02-19T10:24:48;92696.44;;;7.89;100.00
7660;BME280;3872;47.902;8.162;2023-02-19T10:27:17;92693.38;;;8.12;100.00
7660;BME280;3872;47.902;8.162;2023-02-19T10:29:45;92705.88;;;7.90;100.00
7660;BME280;3872;47.902;8.162;2023-02-19T10:32:14;92693.38;;;8.07;100.00
7660;BME280;3872;47.902;8.162;2023-02-19T10:34:46;92714.88;;;8.09;100.00
7660;BME280;3872;47.902;8.162;2023-02-19T10:37:14;92703.06;;;8.12;100.00
7660;BME280;3872;47.902;8.162;2023-02-19T10:39:44;92710.97;;;8.22;100.00
7660;BME280;3872;47.902;8.162;2023-02-19T10:42:17;92720.50;;;7.76;100.00
7660;BME280;3872;47.902;8.162;2023-02-19T10:44:46;92723.72;;;7.93;100.00
7660;BME280;3872;47.902;8.162;2023-02-19T10:47:17;92729.63;;;7.68;100.00
7660;BME280;3872;47.902;8.162;2023-02-19T10:49:46;92726.34;;;7.93;100.00
7660;BME280;3872;47.902;8.162;2023-02-19T10:52:18;92728.91;;;8.45;100.00
7660;BME280;3872;47.902;8.162;2023-02-19T10:54:49;92728.06;;;8.40;100.00
7660;BME280;3872;47.902;8.162;2023-02-19T10:57:25;92732.81;;;8.43;100.00
7660;BME280;3872;47.902;8.162;2023-02-19T10:59:58;92729.19;;;8.84;100.00
7660;BME280;3872;47.902;8.162;2023-02-19T11:02:27;92730.44;;;8.36;100.00
7660;BME280;3872;47.902;8.162;2023-02-19T11:05:05;92737.94;;;8.12;100.00
7660;BME280;3872;47.902;8.162;2023-02-19T11:07:32;92736.88;;;8.08;100.00
7660;BME280;3872;47.902;8.162;2023-02-19T11:09:59;92733.34;;;7.77;100.00
7660;BME280;3872;47.902;8.162;2023-02-19T11:12:28;92737.44;;;8.15;100.00
7660;BME280;3872;47.902;8.162;2023-02-19T11:14:56;92744.34;;;8.47;100.00
7660;BME280;3872;47.902;8.162;2023-02-19T11:17:28;92733.97;;;8.00;100.00
7660;BME280;3872;47.902;8.162;2023-02-19T11:19:57;92730.22;;;8.58;100.00
7660;BME280;3872;47.902;8.162;2023-02-19T11:22:30;92746.53;;;7.93;100.00
7660;BME280;3872;47.902;8.162;2023-02-19T11:25:05;92746.19;;;8.31;100.00
7660;BME280;3872;47.902;8.162;2023-02-19T11:27:32;92730.25;;;8.78;100.00
7660;BME280;3872;47.902;8.162;2023-02-19T11:30:25;92732.81;;;8.48;100.00
7660;BME280;3872;47.902;8.162;2023-02-19T11:33:12;92730.38;;;8.26;100.00
7660;BME280;3872;47.902;8.162;2023-02-19T11:35:45;92722.63;;;8.77;100.00
7660;BME280;3872;47.902;8.162;2023-02-19T11:38:15;92718.56;;;9.80;100.00
7660;BME280;3872;47.902;8.162;2023-02-19T11:40:46;92721.06;;;8.96;100.00
7660;BME280;3872;47.902;8.162;2023-02-19T11:46:07;92721.81;;;8.51;100.00
7660;BME280;3872;47.902;8.162;2023-02-19T11:48:41;92714.28;;;7.92;100.00
7660;BME280;3872;47.902;8.162;2023-02-19T11:51:34;92718.56;;;8.18;100.00
7660;BME280;3872;47.902;8.162;2023-02-19T11:54:16;92703.84;;;8.02;100.00
7660;BME280;3872;47.902;8.162;2023-02-19T11:56:45;92708.06;;;8.08;100.00
7660;BME280;3872;47.902;8.162;2023-02-19T11:59:19;92706.97;;;8.04;100.00
7660;BME280;3872;47.902;8.162;2023-02-19T12:02:12;92698.78;;;7.80;100.00
7660;BME280;3872;47.902;8.162;2023-02-19T12:07:56;92696.00;;;8.12;100.00
7660;BME280;3872;47.902;8.162;2023-02-19T12:10:35;92693.75;;;8.77;100.00
7660;BME280;3872;47.902;8.162;2023-02-19T12:13:11;92690.88;;;8.73;100.00
7660;BME280;3872;47.902;8.162;2023-02-19T12:15:52;92699.44;;;7.51;100.00
7660;BME280;3872;47.902;8.162;2023-02-19T12:18:41;92700.09;;;7.83;100.00
7660;BME280;3872;47.902;8.162;2023-02-19T12:21:21;92698.13;;;8.15;100.00
7660;BME280;3872;47.902;8.162;2023-02-19T12:24:01;92704.66;;;7.51;100.00
7660;BME280;3872;47.902;8.162;2023-02-19T12:26:36;92697.16;;;7.74;100.00
7660;BME280;3872;47.902;8.162;2023-02-19T12:29:23;92712.50;;;7.45;100.00
7660;BME280;3872;47.902;8.162;2023-02-19T12:32:08;92713.19;;;7.83;100.00
7660;BME280;3872;47.902;8.162;2023-02-19T12:35:08;92705.81;;;8.42;100.00
7660;BME280;3872;47.902;8.162;2023-02-19T12:37:45;92707.94;;;7.83;100.00
7660;BME280;3872;47.902;8.162;2023-02-19T12:40:23;92705.88;;;7.85;100.00
7660;BME280;3872;47.902;8.162;2023-02-19T12:43:02;92710.13;;;8.06;100.00
7660;BME280;3872;47.902;8.162;2023-02-19T12:45:36;92713.25;;;7.93;100.00
7660;BME280;3872;47.902;8.162;2023-02-19T12:48:11;92720.25;;;7.82;100.00
7660;BME280;3872;47.902;8.162;2023-02-19T12:50:42;92718.91;;;7.70;100.00
7660;BME280;3872;47.902;8.162;2023-02-19T12:53:17;92712.00;;;7.54;100.00
7660;BME280;3872;47.902;8.162;2023-02-19T12:55:47;92715.44;;;8.21;100.00
7660;BME280;3872;47.902;8.162;2023-02-19T12:58:26;92710.75;;;8.39;100.00
7660;BME280;3872;47.902;8.162;2023-02-19T13:00:56;92706.19;;;7.41;100.00
7660;BME280;3872;47.902;8.162;2023-02-19T13:03:28;92682.53;;;7.83;100.00
7660;BME280;3872;47.902;8.162;2023-02-19T13:06:02;92693.53;;;7.80;100.00
7660;BME280;3872;47.902;8.162;2023-02-19T13:08:31;92688.88;;;7.93;100.00
7660;BME280;3872;47.902;8.162;2023-02-19T13:11:04;92705.94;;;8.10;100.00
7660;BME280;3872;47.902;8.162;2023-02-19T13:13:35;92697.00;;;7.96;100.00
7660;BME280;3872;47.902;8.162;2023-02-19T13:16:08;92710.16;;;7.49;100.00
7660;BME280;3872;47.902;8.162;2023-02-19T13:18:40;92716.72;;;8.09;100.00
7660;BME280;3872;47.902;8.162;2023-02-19T13:21:08;92714.84;;;8.04;100.00
7660;BME280;3872;47.902;8.162;2023-02-19T13:23:37;92702.81;;;8.13;100.00
7660;BME280;3872;47.902;8.162;2023-02-19T13:26:44;92693.81;;;7.84;100.00
7660;BME280;3872;47.902;8.162;2023-02-19T13:29:28;92678.28;;;8.55;100.00
7660;BME280;3872;47.902;8.162;2023-02-19T13:32:22;92679.03;;;8.40;100.00
7660;BME280;3872;47.902;8.162;2023-02-19T13:35:01;92711.50;;;7.57;100.00
7660;BME280;3872;47.902;8.162;2023-02-19T13:37:32;92706.06;;;7.21;100.00
7660;BME280;3872;47.902;8.162;2023-02-19T13:40:03;92709.50;;;7.79;100.00
7660;BME280;3872;47.902;8.162;2023-02-19T13:42:33;92715.75;;;7.68;100.00
7660;BME280;3872;47.902;8.162;2023-02-19T13:45:03;92712.81;;;8.21;100.00
7660;BME280;3872;47.902;8.162;2023-02-19T13:47:48;92712.44;;;7.93;100.00
7660;BME280;3872;47.902;8.162;2023-02-19T13:50:20;92709.94;;;8.23;100.00